Time;durP1;ratioP1;P1;durP2;ratioP2;P2;SDS_P1;SDS_P2;PMS_P1;PMS_P2;Temp;Humidity;BMP_temperature;BMP_pressure;BME280_temperature;BME280_humidity;BME280_pressure;Samples;Min_cycle;Max_cycle;Signal;HPM_P1;HPM_P2
2023/09/14 00:00:22;;;;;;;0.00;0.00;;;17.00;99.90;;;;;;4946926;29;20035;-73
2023/09/14 00:02:48;;;;;;;0.10;0.10;;;17.00;99.90;;;;;;4945182;28;20035;-74
2023/09/14 00:05:15;;;;;;;0.00;0.00;;;17.00;99.90;;;;;;4950775;29;20041;-74
2023/09/14 00:07:40;;;;;;;0.00;0.00;;;16.90;99.90;;;;;;4951949;28;20305;-75
2023/09/14 00:10:07;;;;;;;0.20;0.20;;;16.90;99.90;;;;;;4950072;28;20501;-74
2023/09/14 00:12:32;;;;;;;0.00;0.00;;;16.90;99.90;;;;;;4940177;29;20038;-75
2023/09/14 00:14:58;;;;;;;0.00;0.00;;;17.00;99.90;;;;;;4971030;28;20578;-75
2023/09/14 00:17:24;;;;;;;0.10;0.10;;;17.10;99.90;;;;;;4950074;29;20031;-75
2023/09/14 00:19:49;;;;;;;0.00;0.00;;;17.10;99.90;;;;;;4938828;28;20287;-75
2023/09/14 00:22:15;;;;;;;0.00;0.00;;;17.00;99.90;;;;;;4942314;29;20110;-74
2023/09/14 00:24:41;;;;;;;0.00;0.00;;;17.00;99.90;;;;;;4955621;28;20182;-75
2023/09/14 00:27:06;;;;;;;0.10;0.10;;;17.00;99.90;;;;;;4940450;29;20469;-74
2023/09/14 00:29:32;;;;;;;0.00;0.00;;;17.00;99.90;;;;;;4941817;28;20050;-75
2023/09/14 00:31:57;;;;;;;0.00;0.00;;;17.00;99.90;;;;;;4940870;29;20117;-74
2023/09/14 00:34:23;;;;;;;0.00;0.00;;;17.00;99.90;;;;;;4947412;29;20031;-74
2023/09/14 00:36:49;;;;;;;0.00;0.00;;;17.00;99.90;;;;;;4941838;29;20123;-74
2023/09/14 00:39:14;;;;;;;0.00;0.00;;;16.90;99.90;;;;;;4948430;29;20118;-74
2023/09/14 00:41:40;;;;;;;0.00;0.00;;;16.90;99.90;;;;;;4942714;29;20129;-73
2023/09/14 00:44:06;;;;;;;0.00;0.00;;;16.90;99.90;;;;;;4942815;29;20574;-74
2023/09/14 00:46:32;;;;;;;0.00;0.00;;;17.00;99.90;;;;;;4939568;28;20375;-74
2023/09/14 00:48:59;;;;;;;0.00;0.00;;;17.10;99.90;;;;;;4939634;29;20570;-73
2023/09/14 00:51:27;;;;;;;0.00;0.00;;;17.10;99.90;;;;;;4943971;29;20099;-73
2023/09/14 00:53:54;;;;;;;0.15;0.15;;;17.10;99.90;;;;;;4945349;28;20034;-74
2023/09/14 00:56:20;;;;;;;;;;;17.10;99.90;;;;;;4950230;29;20062;-74
2023/09/14 00:58:47;;;;;;;0.00;0.00;;;17.10;99.90;;;;;;4950312;28;19966;-74
2023/09/14 01:01:14;;;;;;;0.00;0.00;;;17.10;99.90;;;;;;4940259;29;20032;-73
2023/09/14 01:03:40;;;;;;;0.00;0.00;;;17.10;99.90;;;;;;4943069;29;20046;-74
2023/09/14 01:06:06;;;;;;;0.00;0.00;;;17.00;99.90;;;;;;4945084;28;20031;-74
2023/09/14 01:08:32;;;;;;;0.00;0.00;;;16.90;99.90;;;;;;4950267;28;20530;-74
2023/09/14 01:10:58;;;;;;;0.00;0.00;;;16.70;99.90;;;;;;4946734;29;20570;-74
2023/09/14 01:13:36;;;;;;;0.00;0.00;;;16.60;99.90;;;;;;4948791;29;20037;-74
2023/09/14 01:16:18;;;;;;;0.00;0.00;;;16.50;99.90;;;;;;4936186;28;20570;-73
2023/09/14 01:18:53;;;;;;;0.00;0.00;;;16.40;99.90;;;;;;4949006;28;20031;-74
2023/09/14 01:21:33;;;;;;;0.30;0.30;;;16.40;99.90;;;;;;4944483;28;20066;-74
2023/09/14 01:24:17;;;;;;;0.10;0.10;;;16.40;99.90;;;;;;4939179;28;20035;-73
2023/09/14 01:26:44;;;;;;;0.00;0.00;;;16.30;99.90;;;;;;4946726;28;20455;-73
2023/09/14 01:29:10;;;;;;;0.00;0.00;;;16.20;99.90;;;;;;4946632;28;20120;-73
2023/09/14 01:31:35;;;;;;;0.30;0.30;;;16.30;99.90;;;;;;4939802;28;20760;-74
2023/09/14 01:34:02;;;;;;;0.10;0.10;;;16.20;99.90;;;;;;4941140;29;20582;-74
2023/09/14 01:36:41;;;;;;;0.00;0.00;;;16.20;99.90;;;;;;4946399;29;20468;-73
2023/09/14 01:39:07;;;;;;;0.00;0.00;;;16.20;99.90;;;;;;4947880;28;20038;-73
2023/09/14 01:41:34;;;;;;;0.32;0.32;;;16.20;99.90;;;;;;4941712;29;20042;-74
2023/09/14 01:44:00;;;;;;;;;;;16.30;99.90;;;;;;4944145;29;20126;-74
2023/09/14 01:46:27;;;;;;;0.05;0.05;;;16.40;99.90;;;;;;4947026;29;20000;-74
2023/09/14 01:48:52;;;;;;;0.00;0.00;;;16.40;99.90;;;;;;4939085;28;20582;-73
2023/09/14 01:51:18;;;;;;;0.00;0.00;;;16.30;99.90;;;;;;4943031;29;20040;-74
2023/09/14 01:53:44;;;;;;;0.10;0.10;;;16.40;99.90;;;;;;4942797;29;20463;-74
2023/09/14 01:56:09;;;;;;;0.00;0.00;;;16.50;99.90;;;;;;4942364;28;20474;-74
2023/09/14 01:58:35;;;;;;;0.00;0.00;;;16.70;99.90;;;;;;4944351;29;20110;-74
2023/09/14 02:01:00;;;;;;;0.00;0.00;;;16.70;99.90;;;;;;4936875;29;20039;-74
2023/09/14 02:03:26;;;;;;;0.00;0.00;;;16.70;99.90;;;;;;4943123;29;20047;-74
2023/09/14 02:05:58;;;;;;;0.00;0.00;;;16.60;99.90;;;;;;4946014;29;20137;-73
2023/09/14 02:08:25;;;;;;;0.00;0.00;;;16.70;99.90;;;;;;4944915;28;20034;-74
2023/09/14 02:10:51;;;;;;;0.00;0.00;;;16.60;99.90;;;;;;4937861;29;20119;-73
2023/09/14 02:13:17;;;;;;;0.00;0.00;;;16.60;99.90;;;;;;4934035;29;20130;-72
2023/09/14 02:15:43;;;;;;;0.00;0.00;;;16.60;99.90;;;;;;4936633;29;20601;-73
2023/09/14 02:18:08;;;;;;;0.00;0.00;;;16.50;99.90;;;;;;4933553;29;20036;-74
2023/09/14 02:20:35;;;;;;;0.10;0.10;;;16.60;99.90;;;;;;4941551;28;20114;-74
2023/09/14 02:23:02;;;;;;;0.00;0.00;;;16.40;99.90;;;;;;4948700;29;20098;-74
2023/09/14 02:25:27;;;;;;;;;;;16.40;99.90;;;;;;4938406;29;20046;-74
2023/09/14 02:27:53;;;;;;;0.00;0.00;;;16.30;99.90;;;;;;4951557;28;20672;-74
2023/09/14 02:30:19;;;;;;;0.00;0.00;;;16.40;99.90;;;;;;4951506;28;20172;-74
2023/09/14 02:32:44;;;;;;;0.00;0.00;;;16.40;99.90;;;;;;4952194;29;20066;-74
2023/09/14 02:35:10;;;;;;;0.00;0.00;;;16.50;99.90;;;;;;4958243;28;20095;-74
2023/09/14 02:37:36;;;;;;;0.30;0.30;;;16.70;99.90;;;;;;4948579;29;20114;-74
2023/09/14 02:40:03;;;;;;;0.00;0.00;;;16.60;99.90;;;;;;4942770;29;20027;-74
2023/09/14 02:42:28;;;;;;;0.00;0.00;;;16.80;99.90;;;;;;4947803;28;20043;-74
2023/09/14 02:44:54;;;;;;;0.00;0.00;;;16.90;99.90;;;;;;4939676;29;20064;-74
2023/09/14 02:47:20;;;;;;;0.00;0.00;;;17.00;99.90;;;;;;4941633;29;20035;-74
2023/09/14 02:49:45;;;;;;;0.00;0.00;;;16.70;99.90;;;;;;4939192;29;20600;-73
2023/09/14 02:52:11;;;;;;;0.00;0.00;;;16.80;99.90;;;;;;4946328;29;20495;-74
2023/09/14 02:54:37;;;;;;;0.00;0.00;;;16.90;99.90;;;;;;4942746;29;20594;-74
2023/09/14 02:57:03;;;;;;;0.00;0.00;;;16.70;99.90;;;;;;4950578;29;20997;-74
2023/09/14 02:59:28;;;;;;;0.00;0.00;;;16.80;99.90;;;;;;4944883;29;20066;-74
2023/09/14 03:01:54;;;;;;;0.07;0.07;;;16.70;99.90;;;;;;4946401;29;20059;-74
2023/09/14 03:04:20;;;;;;;0.00;0.00;;;16.70;99.90;;;;;;4943667;29;20054;-74
2023/09/14 03:06:46;;;;;;;0.00;0.00;;;16.70;99.90;;;;;;4948788;28;20628;-74
2023/09/14 03:09:11;;;;;;;0.00;0.00;;;16.70;99.90;;;;;;4948899;28;20155;-74
2023/09/14 03:11:37;;;;;;;0.00;0.00;;;16.60;99.90;;;;;;4951540;28;20101;-74
2023/09/14 03:14:03;;;;;;;0.00;0.00;;;16.60;99.90;;;;;;4963425;28;20052;-74
2023/09/14 03:16:28;;;;;;;0.00;0.00;;;16.60;99.90;;;;;;4946664;29;20031;-74
2023/09/14 03:18:54;;;;;;;0.00;0.00;;;16.60;99.90;;;;;;4937491;29;20782;-73
2023/09/14 03:21:24;;;;;;;0.10;0.10;;;16.70;99.90;;;;;;4948897;29;20594;-74
2023/09/14 03:23:50;;;;;;;0.00;0.00;;;16.80;99.90;;;;;;4939339;29;20071;-74
2023/09/14 03:26:16;;;;;;;0.00;0.00;;;16.90;99.90;;;;;;4939430;29;20625;-74
2023/09/14 03:28:42;;;;;;;0.00;0.00;;;16.90;99.90;;;;;;4947262;28;20853;-74
2023/09/14 03:31:09;;;;;;;0.00;0.00;;;16.90;99.90;;;;;;4950378;28;20094;-74
2023/09/14 03:33:35;;;;;;;0.00;0.00;;;16.80;99.90;;;;;;4951195;29;20042;-73
2023/09/14 03:36:01;;;;;;;0.00;0.00;;;16.70;99.90;;;;;;4962339;28;20019;-73
2023/09/14 03:38:28;;;;;;;0.00;0.00;;;16.40;99.90;;;;;;4952431;28;20546;-74
2023/09/14 03:40:54;;;;;;;0.00;0.00;;;16.40;99.90;;;;;;4952186;28;20031;-74
2023/09/14 03:43:20;;;;;;;0.00;0.00;;;16.30;99.90;;;;;;4951399;29;20035;-74
2023/09/14 03:45:46;;;;;;;0.00;0.00;;;16.30;99.90;;;;;;4943837;28;20023;-74
2023/09/14 03:48:12;;;;;;;0.00;0.00;;;16.30;99.90;;;;;;4946657;29;20039;-74
2023/09/14 03:50:38;;;;;;;0.00;0.00;;;16.40;99.90;;;;;;4950465;29;20039;-74
2023/09/14 03:53:04;;;;;;;0.00;0.00;;;16.50;99.90;;;;;;4951315;29;20102;-74
2023/09/14 03:55:30;;;;;;;0.00;0.00;;;16.50;99.90;;;;;;4950497;29;20035;-74
2023/09/14 03:57:57;;;;;;;0.00;0.00;;;16.60;99.90;;;;;;4942242;29;20090;-73
2023/09/14 04:00:23;;;;;;;;;;;16.60;99.90;;;;;;4960912;28;20113;-73
2023/09/14 04:02:49;;;;;;;0.00;0.00;;;16.60;99.90;;;;;;4945363;28;20602;-74
2023/09/14 04:05:16;;;;;;;0.00;0.00;;;16.50;99.90;;;;;;4949756;29;20035;-74
2023/09/14 04:07:44;;;;;;;0.00;0.00;;;16.40;99.90;;;;;;4950994;28;20711;-74
2023/09/14 04:10:10;;;;;;;0.00;0.00;;;16.40;99.90;;;;;;4937359;29;20140;-74
2023/09/14 04:12:38;;;;;;;0.00;0.00;;;16.40;99.90;;;;;;4940244;29;20066;-74
2023/09/14 04:15:04;;;;;;;0.00;0.00;;;16.50;99.90;;;;;;4943939;29;20769;-74
2023/09/14 04:17:29;;;;;;;0.00;0.00;;;16.60;99.90;;;;;;4948783;29;20030;-74
2023/09/14 04:19:55;;;;;;;0.00;0.00;;;16.70;99.90;;;;;;4938123;29;20107;-75
2023/09/14 04:22:21;;;;;;;0.00;0.00;;;16.70;99.90;;;;;;4939911;29;20081;-74
2023/09/14 04:24:47;;;;;;;0.00;0.00;;;16.70;99.90;;;;;;4937709;29;20051;-73
2023/09/14 04:27:12;;;;;;;0.00;0.00;;;16.70;99.90;;;;;;4944957;29;20046;-74
2023/09/14 04:29:38;;;;;;;0.00;0.00;;;16.60;99.90;;;;;;4944225;28;20043;-74
2023/09/14 04:32:04;;;;;;;0.00;0.00;;;16.70;99.90;;;;;;4936671;29;20039;-74
2023/09/14 04:34:30;;;;;;;0.00;0.00;;;16.60;99.90;;;;;;4937716;28;20811;-74
2023/09/14 04:36:56;;;;;;;0.00;0.00;;;16.70;99.90;;;;;;4939166;29;20035;-74
2023/09/14 04:39:21;;;;;;;0.00;0.00;;;16.70;99.90;;;;;;4942025;29;20031;-74
2023/09/14 04:41:47;;;;;;;1.87;1.73;;;16.70;99.90;;;;;;4939160;29;20031;-72
2023/09/14 04:44:13;;;;;;;0.00;0.00;;;16.70;99.90;;;;;;4946581;28;20620;-73
2023/09/14 04:46:38;;;;;;;0.00;0.00;;;16.70;99.90;;;;;;4942439;29;20036;-72
2023/09/14 04:49:04;;;;;;;0.00;0.00;;;16.60;99.90;;;;;;4938530;29;20035;-72
2023/09/14 04:51:30;;;;;;;0.00;0.00;;;16.60;99.90;;;;;;4946537;28;20111;-72
2023/09/14 04:53:55;;;;;;;0.10;0.10;;;16.50;99.90;;;;;;4948343;29;20027;-73
2023/09/14 04:56:21;;;;;;;0.00;0.00;;;16.50;99.90;;;;;;4939829;29;20423;-73
2023/09/14 04:58:47;;;;;;;0.00;0.00;;;16.60;99.90;;;;;;4958471;28;20070;-73
2023/09/14 05:01:12;;;;;;;0.00;0.00;;;16.60;99.90;;;;;;4944552;29;20524;-73
2023/09/14 05:03:39;;;;;;;0.00;0.00;;;16.70;99.90;;;;;;4957556;28;20038;-74
2023/09/14 05:06:05;;;;;;;0.00;0.00;;;16.70;99.90;;;;;;4942882;29;20043;-73
2023/09/14 05:08:31;;;;;;;0.00;0.00;;;16.70;99.90;;;;;;4950030;28;20046;-74
2023/09/14 05:10:57;;;;;;;1.37;1.33;;;16.60;99.90;;;;;;4941253;29;20031;-73
2023/09/14 05:13:24;;;;;;;0.05;0.05;;;16.50;99.90;;;;;;4947593;29;20051;-73
2023/09/14 05:15:50;;;;;;;0.00;0.00;;;16.50;99.90;;;;;;4949038;29;20370;-73
2023/09/14 05:18:16;;;;;;;0.00;0.00;;;16.60;99.90;;;;;;4949094;29;20043;-73
2023/09/14 05:20:47;;;;;;;0.00;0.00;;;16.60;99.90;;;;;;4948490;29;20094;-73
2023/09/14 05:23:13;;;;;;;0.00;0.00;;;16.60;99.90;;;;;;4949542;29;20130;-81
2023/09/14 05:25:40;;;;;;;0.00;0.00;;;16.50;99.90;;;;;;4949030;29;20872;-81
2023/09/14 05:28:06;;;;;;;;;;;16.40;99.90;;;;;;4949598;28;20082;-81
2023/09/14 05:30:32;;;;;;;0.30;0.30;;;16.30;99.90;;;;;;4947631;28;19914;-81
2023/09/14 05:32:58;;;;;;;0.00;0.00;;;16.20;99.90;;;;;;4940850;28;20142;-79
2023/09/14 05:35:23;;;;;;;0.00;0.00;;;16.20;99.90;;;;;;4949132;29;20023;-77
2023/09/14 05:37:50;;;;;;;0.00;0.00;;;16.30;99.90;;;;;;4945726;29;20119;-80
2023/09/14 05:40:16;;;;;;;;;;;16.20;99.90;;;;;;4946633;29;20033;-81
2023/09/14 05:42:42;;;;;;;0.00;0.00;;;16.20;99.90;;;;;;4942640;29;20012;-80
2023/09/14 05:45:09;;;;;;;0.00;0.00;;;16.10;99.90;;;;;;4949135;29;20062;-79
2023/09/14 05:47:35;;;;;;;0.00;0.00;;;16.10;99.90;;;;;;4949075;29;20090;-79
2023/09/14 05:50:01;;;;;;;0.00;0.00;;;16.20;99.90;;;;;;4963520;28;20098;-80
2023/09/14 05:52:27;;;;;;;0.60;0.60;;;16.20;99.90;;;;;;4956235;28;21038;-81
2023/09/14 05:54:53;;;;;;;0.00;0.00;;;16.20;99.90;;;;;;4949972;28;20037;-80
2023/09/14 05:57:18;;;;;;;0.00;0.00;;;16.30;99.90;;;;;;4952877;29;20027;-80
2023/09/14 05:59:44;;;;;;;0.00;0.00;;;16.20;99.90;;;;;;4952778;29;20027;-81
2023/09/14 06:02:10;;;;;;;0.00;0.00;;;16.20;99.90;;;;;;4953643;29;20114;-83
2023/09/14 06:04:47;;;;;;;0.00;0.00;;;16.30;99.90;;;;;;4954351;29;20077;-86
2023/09/14 06:07:13;;;;;;;0.00;0.00;;;16.30;99.90;;;;;;4949376;28;20041;-83
2023/09/14 06:09:38;;;;;;;0.00;0.00;;;16.30;99.90;;;;;;4948972;28;20071;-81
2023/09/14 06:12:05;;;;;;;0.00;0.00;;;16.30;99.90;;;;;;4952921;29;20062;-84
2023/09/14 06:14:32;;;;;;;0.00;0.00;;;16.30;99.90;;;;;;4953250;29;20583;-86
2023/09/14 06:16:58;;;;;;;0.00;0.00;;;16.30;99.90;;;;;;4941289;29;20044;-87
2023/09/14 06:19:24;;;;;;;0.00;0.00;;;16.30;99.90;;;;;;4952943;29;20034;-76
2023/09/14 06:21:50;;;;;;;0.00;0.00;;;16.30;99.90;;;;;;4948207;29;20290;-76
2023/09/14 06:24:17;;;;;;;0.00;0.00;;;16.40;99.90;;;;;;4951502;29;20395;-76
2023/09/14 06:26:44;;;;;;;0.00;0.00;;;16.40;99.90;;;;;;4952072;29;20042;-75
2023/09/14 06:29:13;;;;;;;0.00;0.00;;;16.40;99.90;;;;;;4952712;28;20030;-75
2023/09/14 06:31:39;;;;;;;0.00;0.00;;;16.50;99.90;;;;;;4952763;29;20050;-75
2023/09/14 06:34:05;;;;;;;0.00;0.00;;;16.50;99.90;;;;;;4951060;29;20434;-75
2023/09/14 06:36:30;;;;;;;0.00;0.00;;;16.60;99.90;;;;;;4952833;29;20111;-75
2023/09/14 06:38:56;;;;;;;0.00;0.00;;;16.70;99.90;;;;;;4952152;29;20031;-76
2023/09/14 06:41:22;;;;;;;0.00;0.00;;;16.60;99.90;;;;;;4967129;28;20031;-75
2023/09/14 06:43:48;;;;;;;0.00;0.00;;;16.70;99.90;;;;;;4952239;29;20039;-76
2023/09/14 06:46:13;;;;;;;0.00;0.00;;;16.70;99.90;;;;;;4967415;28;20038;-76
2023/09/14 06:48:40;;;;;;;0.00;0.00;;;16.90;99.90;;;;;;4952245;29;20067;-76
2023/09/14 06:51:06;;;;;;;0.00;0.00;;;16.90;99.90;;;;;;4952177;29;20035;-75
2023/09/14 06:53:32;;;;;;;0.00;0.00;;;16.80;99.90;;;;;;4951823;29;20028;-75
2023/09/14 06:56:05;;;;;;;0.00;0.00;;;17.00;99.90;;;;;;4952541;29;20418;-75
2023/09/14 06:58:31;;;;;;;0.00;0.00;;;17.20;99.90;;;;;;4952345;29;20043;-75
2023/09/14 07:01:01;;;;;;;0.03;0.03;;;17.30;99.90;;;;;;4951972;29;20035;-75
2023/09/14 07:03:26;;;;;;;0.00;0.00;;;17.10;99.90;;;;;;4966623;28;20042;-75
2023/09/14 07:05:52;;;;;;;0.00;0.00;;;17.30;99.90;;;;;;4951465;28;20031;-75
2023/09/14 07:08:18;;;;;;;0.00;0.00;;;17.30;99.90;;;;;;4950827;28;20081;-74
2023/09/14 07:10:44;;;;;;;0.00;0.00;;;17.40;99.90;;;;;;4959084;28;20046;-75
2023/09/14 07:13:09;;;;;;;0.00;0.00;;;17.40;99.90;;;;;;4939134;29;20019;-75
2023/09/14 07:15:35;;;;;;;0.00;0.00;;;17.60;99.90;;;;;;4944681;29;20602;-75
2023/09/14 07:18:01;;;;;;;0.00;0.00;;;17.70;99.90;;;;;;4943580;29;20607;-76
2023/09/14 07:20:26;;;;;;;0.00;0.00;;;17.90;99.90;;;;;;4953052;29;20541;-76
2023/09/14 07:22:53;;;;;;;0.00;0.00;;;18.70;99.90;;;;;;4953243;28;20027;-75
2023/09/14 07:25:19;;;;;;;0.00;0.00;;;18.90;99.90;;;;;;4951942;29;20015;-75
2023/09/14 07:27:45;;;;;;;0.00;0.00;;;18.80;99.90;;;;;;4946473;28;20036;-75
2023/09/14 07:30:13;;;;;;;0.00;0.00;;;18.60;99.90;;;;;;4949188;28;20378;-75
2023/09/14 07:32:40;;;;;;;0.00;0.00;;;18.60;99.90;;;;;;4946969;29;20063;-75
2023/09/14 07:35:07;;;;;;;0.00;0.00;;;18.80;99.90;;;;;;4948736;29;20027;-76
2023/09/14 07:37:33;;;;;;;0.95;0.63;;;19.90;99.90;;;;;;4946943;29;20043;-75
2023/09/14 07:39:59;;;;;;;0.00;0.00;;;19.80;99.90;;;;;;4951669;29;20027;-76
2023/09/14 07:42:25;;;;;;;0.10;0.10;;;21.50;99.90;;;;;;4948870;29;20070;-76
2023/09/14 07:44:50;;;;;;;0.00;0.00;;;21.70;99.90;;;;;;4949866;29;20066;-76
2023/09/14 07:47:16;;;;;;;0.00;0.00;;;20.30;99.90;;;;;;4948199;29;20090;-76
2023/09/14 07:49:45;;;;;;;0.00;0.00;;;20.30;99.90;;;;;;4949397;29;20045;-76
2023/09/14 07:52:11;;;;;;;0.00;0.00;;;21.70;99.90;;;;;;4948755;28;20549;-76
2023/09/14 07:54:37;;;;;;;0.00;0.00;;;23.10;99.40;;;;;;4950192;29;20027;-75
2023/09/14 07:57:03;;;;;;;0.00;0.00;;;23.70;98.00;;;;;;4965682;28;20330;-76
2023/09/14 07:59:28;;;;;;;0.00;0.00;;;22.60;97.20;;;;;;4949872;29;20078;-76
2023/09/14 08:01:54;;;;;;;0.00;0.00;;;22.40;98.20;;;;;;4949092;28;20450;-76
2023/09/14 08:04:20;;;;;;;0.00;0.00;;;22.80;97.30;;;;;;4964309;28;20727;-75
2023/09/14 08:06:45;;;;;;;0.00;0.00;;;24.10;96.00;;;;;;4952723;28;20271;-76
2023/09/14 08:09:11;;;;;;;0.00;0.00;;;23.60;93.70;;;;;;4940954;28;20150;-76
2023/09/14 08:11:37;;;;;;;0.00;0.00;;;22.50;97.00;;;;;;4962380;28;20038;-76
2023/09/14 08:14:03;;;;;;;0.00;0.00;;;23.90;94.50;;;;;;4951340;29;20110;-76
2023/09/14 08:16:32;;;;;;;0.00;0.00;;;24.80;92.20;;;;;;4951103;29;20106;-76
2023/09/14 08:18:58;;;;;;;0.00;0.00;;;24.60;91.50;;;;;;4950329;28;20023;-76
2023/09/14 08:21:24;;;;;;;0.00;0.00;;;25.60;90.90;;;;;;4950034;29;20093;-77
2023/09/14 08:23:53;;;;;;;0.00;0.00;;;25.30;90.50;;;;;;4950630;29;20843;-76
2023/09/14 08:26:19;;;;;;;0.00;0.00;;;25.40;88.50;;;;;;4949585;29;20030;-76
2023/09/14 08:28:45;;;;;;;0.00;0.00;;;25.90;87.20;;;;;;4950201;28;20046;-75
2023/09/14 08:31:10;;;;;;;0.00;0.00;;;26.40;85.80;;;;;;4950285;28;20067;-76
2023/09/14 08:33:36;;;;;;;0.00;0.00;;;26.70;85.30;;;;;;4951587;29;20174;-77
2023/09/14 08:36:02;;;;;;;0.00;0.00;;;27.20;82.70;;;;;;4950577;29;20163;-76
2023/09/14 08:38:28;;;;;;;0.10;0.10;;;26.70;81.60;;;;;;4965722;28;20036;-77
2023/09/14 08:41:00;;;;;;;0.00;0.00;;;26.70;79.90;;;;;;4950254;29;20035;-76
2023/09/14 08:43:25;;;;;;;0.00;0.00;;;26.90;81.50;;;;;;4951049;29;20050;-76
2023/09/14 08:45:52;;;;;;;0.00;0.00;;;27.30;79.40;;;;;;4949177;28;20035;-76
2023/09/14 08:48:21;;;;;;;0.00;0.00;;;26.90;79.10;;;;;;4950849;29;20037;-76
2023/09/14 08:50:48;;;;;;;0.00;0.00;;;26.40;79.40;;;;;;4944703;29;20517;-76
2023/09/14 08:53:16;;;;;;;0.00;0.00;;;26.80;79.40;;;;;;4950495;29;20336;-76
2023/09/14 08:55:43;;;;;;;0.00;0.00;;;27.30;79.70;;;;;;4950256;29;20078;-76
2023/09/14 08:58:11;;;;;;;0.10;0.10;;;27.30;75.40;;;;;;4950376;29;20030;-76
2023/09/14 09:00:37;;;;;;;0.00;0.00;;;26.70;77.20;;;;;;4949590;29;20483;-76
2023/09/14 09:03:03;;;;;;;0.00;0.00;;;27.30;76.90;;;;;;4944801;29;20027;-76
2023/09/14 09:05:29;;;;;;;0.00;0.00;;;27.90;76.20;;;;;;4948267;28;20079;-77
2023/09/14 09:07:55;;;;;;;0.00;0.00;;;28.00;74.80;;;;;;4951571;28;20039;-76
2023/09/14 09:10:22;;;;;;;0.00;0.00;;;28.50;73.60;;;;;;4959554;28;20027;-76
2023/09/14 09:12:50;;;;;;;0.00;0.00;;;28.00;72.90;;;;;;4950114;29;20045;-76
2023/09/14 09:15:17;;;;;;;0.00;0.00;;;28.30;73.40;;;;;;4949561;29;20035;-76
2023/09/14 09:17:46;;;;;;;0.00;0.00;;;27.60;73.60;;;;;;4946146;28;20035;-76
2023/09/14 09:20:12;;;;;;;0.00;0.00;;;27.60;73.80;;;;;;4944709;29;20447;-76
2023/09/14 09:22:45;;;;;;;0.00;0.00;;;27.80;72.10;;;;;;4946475;28;20046;-76
2023/09/14 09:25:12;;;;;;;0.00;0.00;;;28.10;71.70;;;;;;4945053;29;20038;-77
2023/09/14 09:27:39;;;;;;;0.00;0.00;;;28.30;71.40;;;;;;4950311;28;20609;-76
2023/09/14 09:30:06;;;;;;;0.00;0.00;;;29.40;70.00;;;;;;4947120;28;20062;-76
2023/09/14 09:32:32;;;;;;;0.03;0.03;;;28.70;71.00;;;;;;4946388;28;20083;-76
2023/09/14 09:35:18;;;;;;;0.00;0.00;;;28.50;69.90;;;;;;4944167;29;20759;-77
2023/09/14 09:37:44;;;;;;;0.00;0.00;;;28.50;70.30;;;;;;4955602;28;20039;-76
2023/09/14 09:40:21;;;;;;;0.00;0.00;;;29.00;69.90;;;;;;4947679;29;20031;-76
2023/09/14 09:42:48;;;;;;;0.00;0.00;;;29.00;69.40;;;;;;4942886;29;20045;-76
2023/09/14 09:45:14;;;;;;;0.00;0.00;;;29.20;68.30;;;;;;4961624;28;20063;-75
2023/09/14 09:47:41;;;;;;;0.00;0.00;;;29.10;67.70;;;;;;4945084;29;20039;-76
2023/09/14 09:50:14;;;;;;;0.00;0.00;;;29.60;66.00;;;;;;4946404;29;20533;-75
2023/09/14 09:52:42;;;;;;;0.00;0.00;;;29.90;66.70;;;;;;4944802;29;20034;-76
2023/09/14 09:55:23;;;;;;;0.00;0.00;;;29.30;65.70;;;;;;4947898;29;20023;-76
2023/09/14 09:57:51;;;;;;;0.00;0.00;;;30.20;68.20;;;;;;4947712;28;20391;-76
2023/09/14 10:00:19;;;;;;;0.00;0.00;;;28.40;67.00;;;;;;4950490;29;20039;-76
2023/09/14 10:02:46;;;;;;;0.00;0.00;;;26.80;69.70;;;;;;4958783;28;20042;-76
2023/09/14 10:05:12;;;;;;;0.00;0.00;;;27.60;71.40;;;;;;4964037;28;20134;-77
2023/09/14 10:07:40;;;;;;;0.05;0.05;;;27.00;72.70;;;;;;4948377;28;20028;-76
2023/09/14 10:10:10;;;;;;;0.00;0.00;;;26.30;73.80;;;;;;4943426;28;20669;-76
2023/09/14 10:12:40;;;;;;;0.00;0.00;;;24.90;75.60;;;;;;4947722;29;20035;-76
2023/09/14 10:15:08;;;;;;;0.00;0.00;;;25.10;77.30;;;;;;4947255;29;20659;-76
2023/09/14 10:17:35;;;;;;;0.00;0.00;;;25.40;76.80;;;;;;4947708;29;20983;-75
2023/09/14 10:20:05;;;;;;;0.00;0.00;;;25.20;76.50;;;;;;4947793;28;20507;-77
2023/09/14 10:22:32;;;;;;;0.00;0.00;;;25.10;77.70;;;;;;4948861;29;20600;-76
2023/09/14 10:24:58;;;;;;;0.00;0.00;;;25.40;77.50;;;;;;4948283;29;20035;-77
2023/09/14 10:27:29;;;;;;;0.00;0.00;;;26.00;77.60;;;;;;4949326;28;20407;-76
2023/09/14 10:29:56;;;;;;;0.13;0.13;;;26.20;78.10;;;;;;4945467;28;20793;-76
2023/09/14 10:32:23;;;;;;;0.00;0.00;;;25.90;77.90;;;;;;4945731;29;20380;-76
2023/09/14 10:34:50;;;;;;;0.00;0.00;;;26.00;77.80;;;;;;4945728;29;20031;-77
2023/09/14 10:37:18;;;;;;;0.00;0.00;;;26.20;79.20;;;;;;4945258;28;20034;-76
2023/09/14 10:39:45;;;;;;;0.00;0.00;;;26.00;77.00;;;;;;4942573;29;20024;-77
2023/09/14 10:42:10;;;;;;;0.00;0.00;;;26.10;80.80;;;;;;4949901;28;20102;-76
2023/09/14 10:44:36;;;;;;;0.03;0.03;;;25.70;77.40;;;;;;4947606;29;20119;-76
2023/09/14 10:47:03;;;;;;;0.00;0.00;;;25.40;78.90;;;;;;4948120;28;20035;-76
2023/09/14 10:49:32;;;;;;;0.00;0.00;;;25.60;78.90;;;;;;4946515;29;20047;-76
2023/09/14 10:51:58;;;;;;;0.00;0.00;;;25.50;80.10;;;;;;4949728;29;20110;-76
2023/09/14 10:54:25;;;;;;;0.00;0.00;;;25.50;78.50;;;;;;4949186;29;20159;-75
2023/09/14 10:56:55;;;;;;;0.00;0.00;;;25.90;80.00;;;;;;4951546;29;20035;-76
2023/09/14 10:59:42;;;;;;;0.00;0.00;;;25.50;79.00;;;;;;4949602;28;20042;-76
2023/09/14 11:02:07;;;;;;;0.00;0.00;;;25.70;80.20;;;;;;4949174;28;20418;-76
2023/09/14 11:04:33;;;;;;;0.00;0.00;;;25.10;79.60;;;;;;4951457;29;20042;-76
2023/09/14 11:07:00;;;;;;;0.00;0.00;;;25.10;80.10;;;;;;4952081;28;20024;-76
2023/09/14 11:09:25;;;;;;;0.00;0.00;;;25.40;78.50;;;;;;4952246;28;20027;-76
2023/09/14 11:11:52;;;;;;;0.00;0.00;;;25.50;78.80;;;;;;4945850;28;20031;-75
2023/09/14 11:14:20;;;;;;;0.00;0.00;;;25.30;79.00;;;;;;4952091;29;20031;-76
2023/09/14 11:16:54;;;;;;;0.00;0.00;;;25.10;78.40;;;;;;4949259;29;20047;-75
2023/09/14 11:19:32;;;;;;;0.00;0.00;;;24.80;78.00;;;;;;4951339;28;20039;-75
2023/09/14 11:22:14;;;;;;;0.10;0.10;;;25.10;79.20;;;;;;4950233;28;20059;-76
2023/09/14 11:24:41;;;;;;;0.00;0.00;;;25.40;78.00;;;;;;4952085;29;20874;-75
2023/09/14 11:27:07;;;;;;;;;;;25.50;77.90;;;;;;4947418;29;20409;-76
2023/09/14 11:29:33;;;;;;;0.00;0.00;;;26.00;78.90;;;;;;4949776;28;19910;-77
2023/09/14 11:32:02;;;;;;;0.00;0.00;;;26.20;78.30;;;;;;4950379;29;20046;-77
2023/09/14 11:34:32;;;;;;;0.00;0.00;;;26.00;78.10;;;;;;4945521;29;20031;-76
2023/09/14 11:37:01;;;;;;;0.00;0.00;;;25.70;79.00;;;;;;4948016;29;20758;-76
2023/09/14 11:39:28;;;;;;;0.00;0.00;;;25.90;79.70;;;;;;4951328;29;20078;-76
2023/09/14 11:42:00;;;;;;;0.00;0.00;;;26.10;78.60;;;;;;4951058;29;20038;-76
2023/09/14 11:44:31;;;;;;;0.00;0.00;;;26.00;80.10;;;;;;4947936;29;20031;-77
2023/09/14 11:46:59;;;;;;;0.00;0.00;;;26.20;82.20;;;;;;4959129;28;20042;-77
2023/09/14 11:49:30;;;;;;;0.00;0.00;;;26.40;82.30;;;;;;4948644;28;20034;-77
2023/09/14 11:51:56;;;;;;;0.00;0.00;;;26.30;80.70;;;;;;4951002;28;20027;-76
2023/09/14 11:54:27;;;;;;;0.00;0.00;;;25.80;75.10;;;;;;4946296;29;20618;-76
2023/09/14 11:56:58;;;;;;;0.00;0.00;;;25.70;75.50;;;;;;4951380;28;20188;-76
2023/09/14 11:59:30;;;;;;;0.00;0.00;;;26.00;77.80;;;;;;4945406;29;20028;-76
2023/09/14 12:01:57;;;;;;;0.00;0.00;;;25.70;77.10;;;;;;4947690;28;20676;-76
2023/09/14 12:04:24;;;;;;;;;;;25.90;80.00;;;;;;4947311;28;20042;-77
2023/09/14 12:06:51;;;;;;;0.00;0.00;;;26.00;76.50;;;;;;4951027;28;19917;-76
2023/09/14 12:09:16;;;;;;;0.00;0.00;;;25.60;77.30;;;;;;4948996;28;20061;-76
2023/09/14 12:11:44;;;;;;;0.00;0.00;;;25.10;76.80;;;;;;4946233;29;20032;-75
2023/09/14 12:14:09;;;;;;;0.00;0.00;;;25.30;78.20;;;;;;4947738;28;20049;-76
2023/09/14 12:16:38;;;;;;;0.00;0.00;;;25.40;77.90;;;;;;4950774;29;20038;-77
2023/09/14 12:19:04;;;;;;;0.00;0.00;;;25.10;77.80;;;;;;4950286;29;20031;-77
2023/09/14 12:21:29;;;;;;;0.00;0.00;;;25.30;78.50;;;;;;4949694;28;20051;-75
2023/09/14 12:23:56;;;;;;;0.00;0.00;;;25.40;77.50;;;;;;4950243;29;20039;-76
2023/09/14 12:26:22;;;;;;;;;;;25.50;77.70;;;;;;4950751;29;20125;-77
2023/09/14 12:28:49;;;;;;;;;;;25.90;79.80;;;;;;4951186;28;19910;-75
2023/09/14 12:31:15;;;;;;;0.00;0.00;;;26.00;77.50;;;;;;4962480;28;19953;-76
2023/09/14 12:33:43;;;;;;;0.00;0.00;;;25.40;76.70;;;;;;4950074;29;20031;-76
2023/09/14 12:36:10;;;;;;;0.00;0.00;;;25.50;78.30;;;;;;4962313;28;20041;-76
2023/09/14 12:38:36;;;;;;;0.00;0.00;;;25.80;77.80;;;;;;4951393;29;20023;-76
2023/09/14 12:41:01;;;;;;;0.00;0.00;;;25.70;75.60;;;;;;4947571;29;20037;-75
2023/09/14 12:43:28;;;;;;;0.00;0.00;;;25.50;77.60;;;;;;4962577;28;20042;-76
2023/09/14 12:45:53;;;;;;;0.00;0.00;;;25.40;76.50;;;;;;4949200;29;20045;-76
2023/09/14 12:48:19;;;;;;;0.00;0.00;;;25.70;77.80;;;;;;4951001;29;20043;-77